createdAt,value
2023-05-14T00:00:31.562Z,9.358548
2023-05-14T00:01:31.568Z,9.358552
2023-05-14T00:02:31.585Z,9.358498
2023-05-14T00:03:31.578Z,9.358459
2023-05-14T00:04:31.594Z,9.358422
2023-05-14T00:05:31.506Z,9.358418
2023-05-14T00:06:31.504Z,9.358454
2023-05-14T00:07:31.490Z,9.358468
2023-05-14T00:08:31.489Z,9.358492
2023-05-14T00:09:31.457Z,9.358527
2023-05-14T00:10:31.477Z,9.358524
2023-05-14T00:11:31.416Z,9.358554
2023-05-14T00:12:32.427Z,9.358515
2023-05-14T00:13:31.451Z,9.358498
2023-05-14T00:14:31.417Z,9.358519
2023-05-14T00:15:32.933Z,9.358524
2023-05-14T00:16:31.502Z,9.358553
2023-05-14T00:17:31.428Z,9.358592
2023-05-14T00:18:31.449Z,9.358614
2023-05-14T00:19:31.360Z,9.358650
2023-05-14T00:20:31.386Z,9.358676
2023-05-14T00:21:31.316Z,9.358618
2023-05-14T00:22:31.314Z,9.358587
2023-05-14T00:23:31.297Z,9.358590
2023-05-14T00:24:31.307Z,9.358603
2023-05-14T00:25:31.293Z,9.358556
2023-05-14T00:26:31.277Z,9.358516
2023-05-14T00:27:31.289Z,9.358524
2023-05-14T00:28:31.312Z,9.358612
2023-05-14T00:29:31.247Z,9.358540
2023-05-14T00:30:31.218Z,9.358519
2023-05-14T00:31:31.271Z,9.358552
2023-05-14T00:32:31.220Z,9.358639
2023-05-14T00:33:31.186Z,9.358682
2023-05-14T00:34:31.231Z,9.358681
2023-05-14T00:35:31.183Z,9.358652
2023-05-14T00:36:31.172Z,9.358685
2023-05-14T00:37:31.196Z,9.358716
2023-05-14T00:38:31.157Z,9.358640
2023-05-14T00:39:31.124Z,9.358686
2023-05-14T00:40:31.140Z,9.358656
2023-05-14T00:41:31.149Z,9.358685
2023-05-14T00:42:31.102Z,9.358693
2023-05-14T00:43:31.091Z,9.358554
2023-05-14T00:44:31.119Z,9.358494
2023-05-14T00:45:31.050Z,9.358603
2023-05-14T00:46:31.096Z,9.358623
2023-05-14T00:47:31.143Z,9.358532
2023-05-14T00:48:31.047Z,9.358502
2023-05-14T00:49:31.042Z,9.358632
2023-05-14T00:50:31.064Z,9.358664
2023-05-14T00:51:31.018Z,9.358686
2023-05-14T00:52:30.980Z,9.358711
2023-05-14T00:53:31.001Z,9.358647
2023-05-14T00:54:30.981Z,9.358550
2023-05-14T00:55:30.943Z,9.358545
2023-05-14T00:56:30.936Z,9.358598
2023-05-14T00:57:30.928Z,9.358580
2023-05-14T00:58:30.923Z,9.358579
2023-05-14T00:59:30.905Z,9.358454
2023-05-14T01:00:30.943Z,9.358415
2023-05-14T01:01:31.013Z,9.358481
2023-05-14T01:02:30.984Z,9.358634
2023-05-14T01:03:30.988Z,9.358735
2023-05-14T01:04:30.890Z,9.358690
2023-05-14T01:05:30.844Z,9.358564
2023-05-14T01:06:30.828Z,9.358654
2023-05-14T01:07:30.883Z,9.358837
2023-05-14T01:08:30.840Z,9.358827
2023-05-14T01:09:30.800Z,9.358797
2023-05-14T01:10:30.785Z,9.358616
2023-05-14T01:11:30.799Z,9.358553
2023-05-14T01:12:30.771Z,9.358535
2023-05-14T01:13:30.795Z,9.358541
2023-05-14T01:14:30.750Z,9.358685
2023-05-14T01:15:30.752Z,9.358636
2023-05-14T01:16:30.752Z,9.358570
2023-05-14T01:17:30.741Z,9.358564
2023-05-14T01:18:30.765Z,9.358606
2023-05-14T01:19:30.694Z,9.358653
2023-05-14T01:20:30.678Z,9.358638
2023-05-14T01:21:30.687Z,9.358541
2023-05-14T01:22:30.654Z,9.358511
2023-05-14T01:23:30.643Z,9.358545
2023-05-14T01:24:30.674Z,9.358492
2023-05-14T01:25:30.633Z,9.358486
2023-05-14T01:26:30.686Z,9.358540
2023-05-14T01:27:30.622Z,9.358620
2023-05-14T01:28:30.592Z,9.358569
2023-05-14T01:29:30.588Z,9.358589
2023-05-14T01:30:30.585Z,9.358565
2023-05-14T01:31:30.586Z,9.358623
2023-05-14T01:32:30.629Z,9.358537
2023-05-14T01:33:30.548Z,9.358443
2023-05-14T01:34:30.544Z,9.358461
2023-05-14T01:35:30.528Z,9.358562
2023-05-14T01:36:30.521Z,9.358536
2023-05-14T01:37:30.508Z,9.358557
2023-05-14T01:38:30.484Z,9.358579
2023-05-14T01:39:30.507Z,9.358722
2023-05-14T01:40:30.493Z,9.358716
2023-05-14T01:41:30.506Z,9.358702
2023-05-14T01:42:30.471Z,9.358611
2023-05-14T01:43:30.486Z,9.358536
2023-05-14T01:44:30.442Z,9.358523
2023-05-14T01:45:30.454Z,9.358508
2023-05-14T01:46:30.430Z,9.358574
2023-05-14T01:47:30.425Z,9.358562
2023-05-14T01:48:30.445Z,9.358560
2023-05-14T01:49:30.388Z,9.358656
2023-05-14T01:50:30.415Z,9.358602
2023-05-14T01:51:30.410Z,9.358508
2023-05-14T01:52:30.342Z,9.358522
2023-05-14T01:53:30.396Z,9.358576
2023-05-14T01:54:30.361Z,9.358599
2023-05-14T01:55:30.318Z,9.358588
2023-05-14T01:56:30.338Z,9.358579
2023-05-14T01:57:30.286Z,9.358690
2023-05-14T01:58:30.310Z,9.358692
2023-05-14T01:59:30.343Z,9.358443
2023-05-14T02:00:30.294Z,9.358403
2023-05-14T02:01:30.306Z,9.358481
2023-05-14T02:02:30.262Z,9.358474
2023-05-14T02:03:30.269Z,9.358430
2023-05-14T02:04:30.264Z,9.358437
2023-05-14T02:05:30.224Z,9.358502
2023-05-14T02:06:30.212Z,9.358455
2023-05-14T02:07:30.189Z,9.358442
2023-05-14T02:08:30.190Z,9.358465
2023-05-14T02:10:02.157Z,9.358480
2023-05-14T02:10:30.165Z,9.358477
2023-05-14T02:11:30.152Z,9.358440
2023-05-14T02:12:30.169Z,9.358445
2023-05-14T02:13:30.130Z,9.358462
2023-05-14T02:14:30.093Z,9.358429
2023-05-14T02:15:30.117Z,9.358459
2023-05-14T02:16:30.143Z,9.358589
2023-05-14T02:17:31.143Z,9.358575
2023-05-14T02:18:30.121Z,9.358483
2023-05-14T02:19:30.071Z,9.358484
2023-05-14T02:20:30.032Z,9.358574
2023-05-14T02:21:30.050Z,9.358531
2023-05-14T02:22:30.046Z,9.358544
2023-05-14T02:23:40.519Z,9.358575
2023-05-14T02:24:32.016Z,9.358654
2023-05-14T02:25:30.001Z,9.358590
2023-05-14T02:26:29.969Z,9.358459
2023-05-14T02:27:29.961Z,9.358463
2023-05-14T02:28:29.972Z,9.358428
2023-05-14T02:29:29.953Z,9.358459
2023-05-14T02:30:29.921Z,9.358479
2023-05-14T02:31:29.993Z,9.358566
2023-05-14T02:32:29.965Z,9.358465
2023-05-14T02:33:30.012Z,9.358433
2023-05-14T02:34:29.926Z,9.358508
2023-05-14T02:35:29.878Z,9.358474
2023-05-14T02:36:29.872Z,9.358436
2023-05-14T02:37:29.866Z,9.358478
2023-05-14T02:38:29.855Z,9.358520
2023-05-14T02:39:29.841Z,9.358582
2023-05-14T02:40:29.807Z,9.358548
2023-05-14T02:41:29.815Z,9.358539
2023-05-14T02:42:29.830Z,9.358569
2023-05-14T02:43:29.807Z,9.358538
2023-05-14T02:44:29.763Z,9.358526
2023-05-14T02:45:29.765Z,9.358577
2023-05-14T02:46:29.831Z,9.358568
2023-05-14T02:47:29.785Z,9.358540
2023-05-14T02:48:29.714Z,9.358545
2023-05-14T02:49:29.746Z,9.358600
2023-05-14T02:50:29.705Z,9.358623
2023-05-14T02:51:29.700Z,9.358599
2023-05-14T02:52:29.738Z,9.358515
2023-05-14T02:53:29.686Z,9.358497
2023-05-14T02:54:29.662Z,9.358471
2023-05-14T02:55:29.671Z,9.358562
2023-05-14T02:56:29.673Z,9.358603
2023-05-14T02:57:29.647Z,9.358489
2023-05-14T02:58:29.635Z,9.358521
2023-05-14T02:59:29.645Z,9.358500
2023-05-14T03:00:29.606Z,9.358448
2023-05-14T03:01:29.597Z,9.358459
2023-05-14T03:02:29.713Z,9.358465
2023-05-14T03:03:29.662Z,9.358480
2023-05-14T03:04:29.546Z,9.358494
2023-05-14T03:05:29.576Z,9.358468
2023-05-14T03:06:29.526Z,9.358469
2023-05-14T03:07:29.562Z,9.358451
2023-05-14T03:08:29.535Z,9.358430
2023-05-14T03:09:29.545Z,9.358433
2023-05-14T03:10:29.490Z,9.358454
2023-05-14T03:11:29.533Z,9.358460
2023-05-14T03:12:29.549Z,9.358450
2023-05-14T03:13:29.466Z,9.358425
2023-05-14T03:14:29.461Z,9.358436
2023-05-14T03:15:29.436Z,9.358505
2023-05-14T03:16:29.495Z,9.358490
2023-05-14T03:17:29.461Z,9.358471
2023-05-14T03:18:29.458Z,9.358488
2023-05-14T03:19:29.403Z,9.358448
2023-05-14T03:20:29.416Z,9.358446
2023-05-14T03:21:29.375Z,9.358475
2023-05-14T03:22:29.405Z,9.358471
2023-05-14T03:23:29.379Z,9.358458
2023-05-14T03:24:29.357Z,9.358438
2023-05-14T03:25:29.358Z,9.358436
2023-05-14T03:26:29.356Z,9.358463
2023-05-14T03:27:29.377Z,9.358541
2023-05-14T03:28:29.306Z,9.358575
2023-05-14T03:29:29.354Z,9.358550
2023-05-14T03:30:29.287Z,9.358590
2023-05-14T03:31:29.270Z,9.358514
2023-05-14T03:32:29.291Z,9.358445
2023-05-14T03:33:29.290Z,9.358504
2023-05-14T03:34:29.222Z,9.358513
2023-05-14T03:35:29.228Z,9.358482
2023-05-14T03:36:29.252Z,9.358500
2023-05-14T03:37:29.205Z,9.358534
2023-05-14T03:38:29.229Z,9.358529
2023-05-14T03:39:29.198Z,9.358509
2023-05-14T03:40:29.183Z,9.358467
2023-05-14T03:41:29.173Z,9.358437
2023-05-14T03:42:29.170Z,9.358400
2023-05-14T03:43:29.158Z,9.358446
2023-05-14T03:44:29.117Z,9.358467
2023-05-14T03:45:29.137Z,9.358452
2023-05-14T03:46:29.123Z,9.358475
2023-05-14T03:47:29.138Z,9.358475
2023-05-14T03:48:29.176Z,9.358506
2023-05-14T03:49:29.085Z,9.358527
2023-05-14T03:50:29.083Z,9.358534
2023-05-14T03:51:29.078Z,9.358498
2023-05-14T03:52:29.064Z,9.358500
2023-05-14T03:53:29.038Z,9.358501
2023-05-14T03:54:29.064Z,9.358487
2023-05-14T03:55:29.037Z,9.358511
2023-05-14T03:56:29.046Z,9.358546
2023-05-14T03:57:28.994Z,9.358561
2023-05-14T03:58:29.013Z,9.358554
2023-05-14T03:59:28.994Z,9.358526
2023-05-14T04:00:28.963Z,9.358539
2023-05-14T04:01:28.977Z,9.358599
2023-05-14T04:02:29.032Z,9.358613
2023-05-14T04:03:29.078Z,9.358561
2023-05-14T04:04:28.983Z,9.358539
2023-05-14T04:05:28.926Z,9.358571
2023-05-14T04:06:28.917Z,9.358591
2023-05-14T04:07:28.904Z,9.358565
2023-05-14T04:08:28.889Z,9.358523
2023-05-14T04:09:28.856Z,9.358549
2023-05-14T04:10:28.890Z,9.358622
2023-05-14T04:11:28.828Z,9.358621
2023-05-14T04:12:28.829Z,9.358638
2023-05-14T04:13:28.858Z,9.358584
2023-05-14T04:14:28.849Z,9.358552
2023-05-14T04:15:28.809Z,9.358595
2023-05-14T04:16:28.828Z,9.358602
2023-05-14T04:17:28.783Z,9.358588
2023-05-14T04:18:28.830Z,9.358518
2023-05-14T04:19:28.766Z,9.358459
2023-05-14T04:20:28.727Z,9.358451
2023-05-14T04:21:28.730Z,9.358489
2023-05-14T04:22:28.756Z,9.358521
2023-05-14T04:23:28.707Z,9.358543
2023-05-14T04:24:28.682Z,9.358477
2023-05-14T04:25:28.709Z,9.358469
2023-05-14T04:26:28.684Z,9.358548
2023-05-14T04:27:28.670Z,9.358554
2023-05-14T04:28:28.731Z,9.358507
2023-05-14T04:29:28.652Z,9.358438
2023-05-14T04:30:28.640Z,9.358446
2023-05-14T04:31:28.678Z,9.358498
2023-05-14T04:32:28.641Z,9.358523
2023-05-14T04:33:28.586Z,9.358564
2023-05-14T04:34:28.600Z,9.358499
2023-05-14T04:35:28.586Z,9.358508
2023-05-14T04:36:28.581Z,9.358530
2023-05-14T04:37:28.560Z,9.358506
2023-05-14T04:38:28.565Z,9.358528
2023-05-14T04:39:28.553Z,9.358511
2023-05-14T04:40:28.505Z,9.358476
2023-05-14T04:41:28.537Z,9.358553
2023-05-14T04:42:28.487Z,9.358553
2023-05-14T04:43:28.490Z,9.358485
2023-05-14T04:44:28.499Z,9.358497
2023-05-14T04:45:28.488Z,9.358525
2023-05-14T04:46:28.530Z,9.358487
2023-05-14T04:47:28.458Z,9.358522
2023-05-14T04:48:28.457Z,9.358513
2023-05-14T04:49:28.415Z,9.358519
2023-05-14T04:50:28.440Z,9.358563
2023-05-14T04:51:28.407Z,9.358509
2023-05-14T04:52:28.393Z,9.358513
2023-05-14T04:53:28.379Z,9.358514
2023-05-14T04:54:28.384Z,9.358554
2023-05-14T04:55:28.362Z,9.358550
2023-05-14T04:56:28.354Z,9.358577
2023-05-14T04:57:28.320Z,9.358521
2023-05-14T04:58:28.340Z,9.358504
2023-05-14T04:59:28.324Z,9.358468
2023-05-14T05:00:28.306Z,9.358435
2023-05-14T05:01:28.322Z,9.358467
2023-05-14T05:02:28.295Z,9.358462
2023-05-14T05:03:28.303Z,9.358469
2023-05-14T05:04:28.229Z,9.358466
2023-05-14T05:05:28.261Z,9.358499
2023-05-14T05:06:28.223Z,9.358562
2023-05-14T05:07:28.203Z,9.358544
2023-05-14T05:08:28.221Z,9.358523
2023-05-14T05:09:28.202Z,9.358582
2023-05-14T05:10:28.178Z,9.358567
2023-05-14T05:11:28.177Z,9.358520
2023-05-14T05:12:28.198Z,9.358495
2023-05-14T05:13:28.129Z,9.358470
2023-05-14T05:14:28.141Z,9.358503
2023-05-14T05:15:28.136Z,9.358477
2023-05-14T05:16:28.267Z,9.358483
2023-05-14T05:17:28.129Z,9.358513
2023-05-14T05:18:28.161Z,9.358529
2023-05-14T05:19:39.690Z,9.358516
2023-05-14T05:20:30.126Z,9.358464
2023-05-14T05:21:28.081Z,9.358470
2023-05-14T05:22:28.055Z,9.358481
2023-05-14T05:23:28.045Z,9.358467
2023-05-14T05:24:28.005Z,9.358459
2023-05-14T05:25:28.039Z,9.358428
2023-05-14T05:26:28.014Z,9.358469
2023-05-14T05:27:27.992Z,9.358473
2023-05-14T05:28:27.970Z,9.358513
2023-05-14T05:29:27.989Z,9.358470
2023-05-14T05:30:27.950Z,9.358439
2023-05-14T05:31:28.033Z,9.358500
2023-05-14T05:32:28.001Z,9.358551
2023-05-14T05:33:27.920Z,9.358589
2023-05-14T05:34:27.894Z,9.358534
2023-05-14T05:35:27.907Z,9.358621
2023-05-14T05:36:27.928Z,9.358560
2023-05-14T05:37:27.874Z,9.358527
2023-05-14T05:38:28.868Z,9.358520
2023-05-14T05:39:27.861Z,9.358486
2023-05-14T05:40:27.830Z,9.358520
2023-05-14T05:41:27.821Z,9.358514
2023-05-14T05:42:27.834Z,9.358519
2023-05-14T05:43:27.802Z,9.358475
2023-05-14T05:44:27.780Z,9.358471
2023-05-14T05:45:27.808Z,9.358462
2023-05-14T05:46:27.828Z,9.358455
2023-05-14T05:47:27.798Z,9.358514
2023-05-14T05:48:27.759Z,9.358577
2023-05-14T05:49:27.737Z,9.358594
2023-05-14T05:50:27.720Z,9.358599
2023-05-14T05:51:27.729Z,9.358475
2023-05-14T05:52:27.733Z,9.358540
2023-05-14T05:53:27.684Z,9.358589
2023-05-14T05:54:27.692Z,9.358605
2023-05-14T05:55:27.704Z,9.358576
2023-05-14T05:56:27.647Z,9.358597
2023-05-14T05:57:27.668Z,9.358549
2023-05-14T05:58:27.658Z,9.358574
2023-05-14T05:59:27.628Z,9.358548
2023-05-14T06:00:27.652Z,9.358551
2023-05-14T06:01:27.655Z,9.358500
2023-05-14T06:02:27.638Z,9.358553
2023-05-14T06:03:27.579Z,9.358510
2023-05-14T06:04:27.595Z,9.358509
2023-05-14T06:05:27.685Z,9.358539
2023-05-14T06:06:27.529Z,9.358542
2023-05-14T06:07:27.552Z,9.358612
2023-05-14T06:08:27.618Z,9.358556
2023-05-14T06:09:27.486Z,9.358515
2023-05-14T06:10:28.520Z,9.358506
2023-05-14T06:11:27.511Z,9.358474
2023-05-14T06:12:27.483Z,9.358593
2023-05-14T06:13:27.488Z,9.358549
2023-05-14T06:14:27.470Z,9.358511
2023-05-14T06:15:27.442Z,9.358459
2023-05-14T06:16:27.487Z,9.358427
2023-05-14T06:17:27.478Z,9.358477
2023-05-14T06:18:27.437Z,9.358503
2023-05-14T06:19:27.400Z,9.358513
2023-05-14T06:20:27.400Z,9.358516
2023-05-14T06:21:27.387Z,9.358503
2023-05-14T06:22:27.412Z,9.358507
2023-05-14T06:23:27.346Z,9.358510
2023-05-14T06:24:27.349Z,9.358533
2023-05-14T06:25:27.331Z,9.358481
2023-05-14T06:26:27.302Z,9.358500
2023-05-14T06:27:27.335Z,9.358492
2023-05-14T06:28:27.323Z,9.358461
2023-05-14T06:29:27.293Z,9.358490
2023-05-14T06:30:27.263Z,9.358513
2023-05-14T06:31:27.308Z,9.358485
2023-05-14T06:32:27.282Z,9.358538
2023-05-14T06:33:27.249Z,9.358533
2023-05-14T06:34:27.237Z,9.358497
2023-05-14T06:35:27.222Z,9.358473
2023-05-14T06:36:27.196Z,9.358520
2023-05-14T06:37:27.198Z,9.358468
2023-05-14T06:38:27.215Z,9.358445
2023-05-14T06:39:27.179Z,9.358481
2023-05-14T06:40:27.176Z,9.358511
2023-05-14T06:41:27.162Z,9.358489
2023-05-14T06:42:27.137Z,9.358514
2023-05-14T06:43:27.122Z,9.358533
2023-05-14T06:44:27.134Z,9.358479
2023-05-14T06:45:27.114Z,9.358514
2023-05-14T06:46:27.092Z,9.358525
2023-05-14T06:47:28.119Z,9.358541
2023-05-14T06:48:27.335Z,9.358519
2023-05-14T06:49:27.059Z,9.358519
2023-05-14T06:50:27.067Z,9.358505
2023-05-14T06:51:27.079Z,9.358519
2023-05-14T06:52:27.021Z,9.358520
2023-05-14T06:53:27.008Z,9.358535
2023-05-14T06:54:27.028Z,9.358546
2023-05-14T06:55:27.020Z,9.358507
2023-05-14T06:56:26.982Z,9.358586
2023-05-14T06:57:26.968Z,9.358654
2023-05-14T06:58:27.000Z,9.358570
2023-05-14T06:59:26.993Z,9.358473
2023-05-14T07:00:26.960Z,9.358528
2023-05-14T07:01:26.955Z,9.358560
2023-05-14T07:02:26.932Z,9.358611
2023-05-14T07:03:26.923Z,9.358549
2023-05-14T07:04:26.951Z,9.358545
2023-05-14T07:05:26.896Z,9.358520
2023-05-14T07:06:26.847Z,9.358532
2023-05-14T07:07:26.860Z,9.358584
2023-05-14T07:08:26.879Z,9.358584
2023-05-14T07:09:26.847Z,9.358587
2023-05-14T07:10:26.839Z,9.358628
2023-05-14T07:11:27.815Z,9.358644
2023-05-14T07:12:26.843Z,9.358567
2023-05-14T07:13:28.487Z,9.358566
2023-05-14T07:14:27.823Z,9.358577
2023-05-14T07:15:26.790Z,9.358596
2023-05-14T07:16:26.765Z,9.358638
2023-05-14T07:17:26.849Z,9.358575
2023-05-14T07:18:26.785Z,9.358533
2023-05-14T07:19:26.733Z,9.358562
2023-05-14T07:20:26.953Z,9.358562
2023-05-14T07:21:26.734Z,9.358670
2023-05-14T07:22:26.677Z,9.358694
2023-05-14T07:23:26.695Z,9.358704
2023-05-14T07:24:26.688Z,9.358588
2023-05-14T07:25:26.663Z,9.358609
2023-05-14T07:26:26.660Z,9.358643
2023-05-14T07:27:26.633Z,9.358690
2023-05-14T07:28:26.672Z,9.358689
2023-05-14T07:29:26.628Z,9.358613
2023-05-14T07:30:26.715Z,9.358605
2023-05-14T07:31:26.618Z,9.358631
2023-05-14T07:32:26.649Z,9.358650
2023-05-14T07:33:26.599Z,9.358677
2023-05-14T07:34:26.534Z,9.358655
2023-05-14T07:35:26.541Z,9.358603
2023-05-14T07:36:26.550Z,9.358581
2023-05-14T07:37:26.517Z,9.358535
2023-05-14T07:38:26.544Z,9.358552
2023-05-14T07:39:26.531Z,9.358524
2023-05-14T07:40:26.734Z,9.358541
2023-05-14T07:41:26.510Z,9.358489
2023-05-14T07:42:35.950Z,9.358510
2023-05-14T07:43:28.505Z,9.358582
2023-05-14T07:44:26.444Z,9.358543
2023-05-14T07:45:26.464Z,9.358533
2023-05-14T07:46:26.425Z,9.358592
2023-05-14T07:47:26.522Z,9.358556
2023-05-14T07:48:26.485Z,9.358550
2023-05-14T07:49:26.415Z,9.358572
2023-05-14T07:50:26.642Z,9.358499
2023-05-14T07:51:26.395Z,9.358495
2023-05-14T07:52:26.427Z,9.358544
2023-05-14T07:53:26.355Z,9.358555
2023-05-14T07:54:26.369Z,9.358571
2023-05-14T07:55:26.359Z,9.358592
2023-05-14T07:56:26.339Z,9.358598
2023-05-14T07:57:26.325Z,9.358594
2023-05-14T07:58:26.320Z,9.358561
2023-05-14T07:59:26.307Z,9.358570
2023-05-14T08:00:26.471Z,9.358606
2023-05-14T08:01:26.306Z,9.358631
2023-05-14T08:02:26.315Z,9.358613
2023-05-14T08:03:26.320Z,9.358604
2023-05-14T08:04:26.341Z,9.358614
2023-05-14T08:05:26.293Z,9.358605
2023-05-14T08:06:26.231Z,9.358528
2023-05-14T08:07:26.221Z,9.358504
2023-05-14T08:08:26.245Z,9.358459
2023-05-14T08:09:26.168Z,9.358488
2023-05-14T08:10:58.192Z,9.358474
2023-05-14T08:11:26.208Z,9.358560
2023-05-14T08:12:26.161Z,9.358570
2023-05-14T08:13:26.217Z,9.358609
2023-05-14T08:14:26.174Z,9.358597
2023-05-14T08:15:27.839Z,9.358560
2023-05-14T08:16:27.168Z,9.358510
2023-05-14T08:17:26.125Z,9.358429
2023-05-14T08:18:26.172Z,9.358395
2023-05-14T08:19:26.114Z,9.358485
2023-05-14T08:20:26.396Z,9.358508
2023-05-14T08:21:26.083Z,9.358442
2023-05-14T08:22:26.074Z,9.358458
2023-05-14T08:23:26.047Z,9.358488
2023-05-14T08:24:26.043Z,9.358468
2023-05-14T08:25:26.070Z,9.358500
2023-05-14T08:26:26.032Z,9.358512
2023-05-14T08:27:26.000Z,9.358524
2023-05-14T08:28:25.993Z,9.358614
2023-05-14T08:29:26.010Z,9.358570
2023-05-14T08:30:26.206Z,9.358505
2023-05-14T08:31:26.016Z,9.358526
2023-05-14T08:32:26.048Z,9.358529
2023-05-14T08:33:25.960Z,9.358540
2023-05-14T08:34:25.929Z,9.358513
2023-05-14T08:35:25.991Z,9.358506
2023-05-14T08:36:25.930Z,9.358504
2023-05-14T08:37:25.908Z,9.358541
2023-05-14T08:38:25.902Z,9.358512
2023-05-14T08:39:25.869Z,9.358536
2023-05-14T08:40:26.103Z,9.358575
2023-05-14T08:41:25.888Z,9.358565
2023-05-14T08:42:25.876Z,9.358587
2023-05-14T08:43:25.934Z,9.358584
2023-05-14T08:44:25.844Z,9.358538
2023-05-14T08:45:25.860Z,9.358570
2023-05-14T08:46:25.797Z,9.358557
2023-05-14T08:47:25.834Z,9.358538
2023-05-14T08:48:25.867Z,9.358524
2023-05-14T08:49:25.801Z,9.358523
2023-05-14T08:50:25.901Z,9.358507
2023-05-14T08:51:25.731Z,9.358529
2023-05-14T08:52:25.776Z,9.358532
2023-05-14T08:53:25.725Z,9.358538
2023-05-14T08:54:25.703Z,9.358531
2023-05-14T08:55:25.754Z,9.358577
2023-05-14T08:56:25.680Z,9.358590
2023-05-14T08:57:25.680Z,9.358561
2023-05-14T08:58:25.726Z,9.358575
2023-05-14T08:59:25.666Z,9.358530
2023-05-14T09:00:25.899Z,9.358517
2023-05-14T09:01:25.646Z,9.358546
2023-05-14T09:02:25.681Z,9.358528
2023-05-14T09:03:25.716Z,9.358499
2023-05-14T09:04:25.629Z,9.358513
2023-05-14T09:05:25.641Z,9.358576
2023-05-14T09:06:25.577Z,9.358628
2023-05-14T09:07:25.615Z,9.358586
2023-05-14T09:08:25.572Z,9.358567
2023-05-14T09:09:25.533Z,9.358550
2023-05-14T09:10:25.799Z,9.358544
2023-05-14T09:11:25.534Z,9.358565
2023-05-14T09:12:25.519Z,9.358541
2023-05-14T09:13:26.991Z,9.358559
2023-05-14T09:14:25.529Z,9.358597
2023-05-14T09:15:25.493Z,9.358579
2023-05-14T09:16:25.539Z,9.358540
2023-05-14T09:17:25.528Z,9.358582
2023-05-14T09:18:25.485Z,9.358580
2023-05-14T09:19:25.427Z,9.358535
2023-05-14T09:20:25.873Z,9.358562
2023-05-14T09:21:25.411Z,9.358584
2023-05-14T09:22:25.442Z,9.358575
2023-05-14T09:23:25.450Z,9.358556
2023-05-14T09:24:25.418Z,9.358567
2023-05-14T09:25:25.458Z,9.358585
2023-05-14T09:26:25.410Z,9.358560
2023-05-14T09:27:25.383Z,9.358567
2023-05-14T09:28:25.345Z,9.358567
2023-05-14T09:29:25.409Z,9.358541
2023-05-14T09:30:25.472Z,9.358498
2023-05-14T09:31:25.340Z,9.358504
2023-05-14T09:32:25.375Z,9.358514
2023-05-14T09:33:25.318Z,9.358542
2023-05-14T09:34:25.298Z,9.358564
2023-05-14T09:35:25.271Z,9.358564
2023-05-14T09:36:25.323Z,9.358532
2023-05-14T09:37:25.241Z,9.358537
2023-05-14T09:38:25.217Z,9.358518
2023-05-14T09:39:25.249Z,9.358516
2023-05-14T09:40:25.475Z,9.358533
2023-05-14T09:41:25.263Z,9.358562
2023-05-14T09:42:25.196Z,9.358581
2023-05-14T09:43:25.173Z,9.358571
2023-05-14T09:44:25.165Z,9.358569
2023-05-14T09:45:25.206Z,9.358607
2023-05-14T09:46:25.178Z,9.358558
2023-05-14T09:47:25.238Z,9.358521
2023-05-14T09:48:25.203Z,9.358529
2023-05-14T09:49:25.120Z,9.358526
2023-05-14T09:50:25.425Z,9.358502
2023-05-14T09:51:25.171Z,9.358548
2023-05-14T09:52:25.088Z,9.358525
2023-05-14T09:53:25.096Z,9.358545
2023-05-14T09:54:25.134Z,9.358544
2023-05-14T09:55:25.082Z,9.358507
2023-05-14T09:56:25.074Z,9.358515
2023-05-14T09:57:25.039Z,9.358522
2023-05-14T09:58:25.097Z,9.358586
2023-05-14T09:59:25.005Z,9.358555
2023-05-14T10:00:25.249Z,9.358525
2023-05-14T10:01:25.023Z,9.358527
2023-05-14T10:02:25.120Z,9.358480
2023-05-14T10:03:24.992Z,9.358462
2023-05-14T10:04:25.015Z,9.358473
2023-05-14T10:05:24.971Z,9.358502
2023-05-14T10:06:24.979Z,9.358545
2023-05-14T10:07:24.959Z,9.358546
2023-05-14T10:08:24.936Z,9.358594
2023-05-14T10:09:24.925Z,9.358601
2023-05-14T10:10:25.145Z,9.358581
2023-05-14T10:11:24.872Z,9.358557
2023-05-14T10:12:24.873Z,9.358569
2023-05-14T10:13:24.851Z,9.358572
2023-05-14T10:14:24.841Z,9.358611
2023-05-14T10:15:24.846Z,9.358605
2023-05-14T10:16:24.856Z,9.358579
2023-05-14T10:17:24.870Z,9.358561
2023-05-14T10:18:24.778Z,9.358561
2023-05-14T10:19:24.845Z,9.358576
2023-05-14T10:20:25.005Z,9.358633
2023-05-14T10:21:24.772Z,9.358585
2023-05-14T10:22:24.813Z,9.358597
2023-05-14T10:23:24.824Z,9.358537
2023-05-14T10:24:24.767Z,9.358540
2023-05-14T10:25:24.752Z,9.358538
2023-05-14T10:26:24.699Z,9.358543
2023-05-14T10:27:24.714Z,9.358527
2023-05-14T10:28:24.754Z,9.358562
2023-05-14T10:29:24.665Z,9.358557
2023-05-14T10:30:24.922Z,9.358479
2023-05-14T10:31:24.716Z,9.358480
2023-05-14T10:32:24.664Z,9.358524
2023-05-14T10:33:24.644Z,9.358553
2023-05-14T10:34:24.641Z,9.358615
2023-05-14T10:35:24.664Z,9.358604
2023-05-14T10:36:24.629Z,9.358605
2023-05-14T10:37:24.606Z,9.358573
2023-05-14T10:38:24.628Z,9.358630
2023-05-14T10:39:24.569Z,9.358617
2023-05-14T10:40:24.945Z,9.358511
2023-05-14T10:41:24.572Z,9.358458
2023-05-14T10:42:24.536Z,9.358469
2023-05-14T10:43:24.524Z,9.358536
2023-05-14T10:44:24.522Z,9.358522
2023-05-14T10:45:24.512Z,9.358488
2023-05-14T10:46:24.530Z,9.358529
2023-05-14T10:47:24.467Z,9.358569
2023-05-14T10:48:24.554Z,9.358569
2023-05-14T10:49:39.714Z,9.358554
2023-05-14T10:50:26.675Z,9.358479
2023-05-14T10:51:24.541Z,9.358568
2023-05-14T10:52:24.442Z,9.358612
2023-05-14T10:53:24.413Z,9.358615
2023-05-14T10:54:24.437Z,9.358602
2023-05-14T10:55:24.450Z,9.358558
2023-05-14T10:56:24.369Z,9.358501
2023-05-14T10:57:24.361Z,9.358505
2023-05-14T10:58:24.390Z,9.358514
2023-05-14T10:59:24.327Z,9.358531
2023-05-14T11:00:24.572Z,9.358538
2023-05-14T11:01:24.437Z,9.358614
2023-05-14T11:02:24.325Z,9.358577
2023-05-14T11:03:24.302Z,9.358602
2023-05-14T11:04:24.310Z,9.358602
2023-05-14T11:05:24.305Z,9.358528
2023-05-14T11:06:24.282Z,9.358550
2023-05-14T11:07:24.265Z,9.358547
2023-05-14T11:08:26.999Z,9.358507
2023-05-14T11:09:25.244Z,9.358508
2023-05-14T11:10:24.437Z,9.358492
2023-05-14T11:11:24.232Z,9.358485
2023-05-14T11:12:24.188Z,9.358476
2023-05-14T11:13:25.185Z,9.358452
2023-05-14T11:14:24.206Z,9.358463
2023-05-14T11:15:24.177Z,9.358456
2023-05-14T11:16:24.354Z,9.358459
2023-05-14T11:17:24.165Z,9.358443
2023-05-14T11:18:24.200Z,9.358539
2023-05-14T11:19:24.146Z,9.358563
2023-05-14T11:20:24.440Z,9.358552
2023-05-14T11:21:24.195Z,9.358550
2023-05-14T11:22:24.112Z,9.358504
2023-05-14T11:23:24.096Z,9.358482
2023-05-14T11:24:24.097Z,9.358536
2023-05-14T11:25:24.090Z,9.358582
2023-05-14T11:26:24.184Z,9.358560
2023-05-14T11:27:24.074Z,9.358578
2023-05-14T11:28:24.085Z,9.358589
2023-05-14T11:29:24.061Z,9.358578
2023-05-14T11:30:24.317Z,9.358541
2023-05-14T11:31:24.077Z,9.358590
2023-05-14T11:32:24.143Z,9.358567
2023-05-14T11:33:24.018Z,9.358556
2023-05-14T11:34:23.987Z,9.358602
2023-05-14T11:35:23.978Z,9.358649
2023-05-14T11:36:23.968Z,9.358664
2023-05-14T11:37:23.953Z,9.358628
2023-05-14T11:38:23.939Z,9.358569
2023-05-14T11:39:23.955Z,9.358541
2023-05-14T11:40:24.106Z,9.358538
2023-05-14T11:41:23.924Z,9.358515
2023-05-14T11:42:23.920Z,9.358522
2023-05-14T11:43:23.922Z,9.358491
2023-05-14T11:44:23.933Z,9.358530